Time;durP1;ratioP1;P1;durP2;ratioP2;P2;SDS_P1;SDS_P2;PMS_P1;PMS_P2;Temp;Humidity;BMP_temperature;BMP_pressure;BME280_temperature;BME280_humidity;BME280_pressure;Samples;Min_cycle;Max_cycle;Signal;HPM_P1;HPM_P2
2021/05/12 00:00:05;;;;;;;6.45;5.82;;;;;;;15.45;39.21;100184.06;5000119;28;98346;-67
2021/05/12 00:02:34;;;;;;;7.07;6.47;;;;;;;15.43;39.20;100177.81;5001449;28;98362;-67
2021/05/12 00:05:03;;;;;;;7.40;6.70;;;;;;;15.38;39.28;100172.47;5000882;28;97222;-68
2021/05/12 00:07:31;;;;;;;8.27;6.80;;;;;;;15.34;39.41;100165.34;5002772;28;96811;-67
2021/05/12 00:09:59;;;;;;;7.85;6.95;;;;;;;15.28;39.45;100160.03;5001361;28;97378;-68
2021/05/12 00:12:27;;;;;;;8.73;6.70;;;;;;;15.26;39.22;100167.19;5005358;28;98942;-67
2021/05/12 00:14:55;;;;;;;6.95;6.10;;;;;;;15.21;39.53;100177.03;5003760;28;97467;-68
2021/05/12 00:17:22;;;;;;;8.88;6.80;;;;;;;15.17;39.46;100183.34;5006998;28;96779;-68
2021/05/12 00:19:55;;;;;;;8.13;6.90;;;;;;;15.06;39.72;100194.09;5005274;28;97890;-68
2021/05/12 00:22:35;;;;;;;7.35;6.55;;;;;;;15.05;39.48;100196.81;5005523;28;97754;-67
2021/05/12 00:25:05;;;;;;;7.60;6.68;;;;;;;15.04;39.62;100200.41;5004236;28;97003;-68
2021/05/12 00:27:34;;;;;;;7.55;6.80;;;;;;;15.03;39.81;100195.91;5005678;28;97175;-68
2021/05/12 00:30:03;;;;;;;8.07;7.28;;;;;;;15.04;39.56;100197.72;5005337;28;97940;-68
2021/05/12 00:32:31;;;;;;;9.55;6.90;;;;;;;15.07;39.53;100203.94;5004321;28;99034;-67
2021/05/12 00:34:59;;;;;;;8.23;6.82;;;;;;;15.05;39.52;100199.47;5005328;28;96868;-68
2021/05/12 00:37:27;;;;;;;9.32;6.88;;;;;;;15.07;39.67;100189.66;5004991;28;98250;-68
2021/05/12 00:39:55;;;;;;;9.65;7.07;;;;;;;15.05;39.42;100183.41;5003659;28;97062;-68
2021/05/12 00:42:27;;;;;;;9.55;7.78;;;;;;;15.04;39.69;100181.66;5006034;28;99160;-69
2021/05/12 00:44:55;;;;;;;7.93;6.75;;;;;;;14.98;39.54;100176.31;5004786;28;98131;-69
2021/05/12 00:47:27;;;;;;;8.32;6.97;;;;;;;14.95;39.75;100176.34;5003013;28;96917;-69
2021/05/12 00:49:55;;;;;;;8.82;7.22;;;;;;;14.95;39.68;100176.34;5003425;28;97983;-69
2021/05/12 00:52:23;;;;;;;9.18;7.93;;;;;;;14.93;39.71;100180.81;5006113;28;98804;-68
2021/05/12 00:54:53;;;;;;;9.85;7.32;;;;;;;14.87;39.73;100187.09;5006243;28;97270;-68
2021/05/12 00:57:21;;;;;;;8.30;6.63;;;;;;;14.83;39.59;100189.78;5004951;28;97342;-68
2021/05/12 00:59:50;;;;;;;7.35;6.65;;;;;;;14.81;39.76;100205.88;5005759;28;100703;-67
2021/05/12 01:02:18;;;;;;;11.55;7.32;;;;;;;14.80;40.03;100208.56;5004941;28;98210;-68
2021/05/12 01:04:46;;;;;;;11.55;7.50;;;;;;;14.80;40.07;100213.94;5003900;28;98097;-68
2021/05/12 01:07:14;;;;;;;8.07;7.28;;;;;;;14.80;40.10;100213.94;5004875;28;97361;-68
2021/05/12 01:09:42;;;;;;;8.15;7.25;;;;;;;14.80;40.06;100214.81;5005015;28;97858;-68
2021/05/12 01:12:10;;;;;;;8.35;7.55;;;;;;;14.82;39.80;100209.47;5005339;28;97951;-68
2021/05/12 01:14:38;;;;;;;9.65;7.50;;;;;;;14.83;40.13;100213.91;5004250;28;97259;-68
2021/05/12 01:17:06;;;;;;;9.00;8.07;;;;;;;14.83;40.11;100206.75;5006016;28;97858;-68
2021/05/12 01:19:34;;;;;;;9.20;8.30;;;;;;;14.84;40.01;100204.97;5004520;28;99829;-69
2021/05/12 01:22:03;;;;;;;8.75;7.47;;;;;;;14.87;39.84;100215.66;5002896;28;97205;-69
2021/05/12 01:24:30;;;;;;;9.55;8.60;;;;;;;14.91;39.92;100206.72;5002407;28;96948;-68
2021/05/12 01:26:58;;;;;;;9.95;8.48;;;;;;;14.92;39.80;100221.88;5003255;28;98174;-68
2021/05/12 01:29:26;;;;;;;9.60;8.13;;;;;;;14.90;39.90;100221.03;5002575;28;97479;-69
2021/05/12 01:31:54;;;;;;;12.13;8.75;;;;;;;14.91;39.81;100217.44;5003360;28;97569;-67
2021/05/12 01:34:23;;;;;;;10.32;8.70;;;;;;;14.93;39.80;100212.97;5003472;28;96823;-67
2021/05/12 01:36:51;;;;;;;9.20;8.15;;;;;;;14.94;39.81;100222.78;5004020;28;96951;-68
2021/05/12 01:39:21;;;;;;;12.82;9.40;;;;;;;14.98;39.78;100220.09;5002942;28;98038;-68
2021/05/12 01:41:49;;;;;;;10.15;8.75;;;;;;;14.95;40.00;100213.84;5006114;28;99390;-68
2021/05/12 01:44:16;;;;;;;12.90;9.52;;;;;;;14.93;40.20;100223.69;5005657;28;96889;-67
2021/05/12 01:46:46;;;;;;;9.43;8.45;;;;;;;14.91;39.79;100222.81;5002605;28;97268;-68
2021/05/12 01:49:15;;;;;;;11.43;9.45;;;;;;;14.91;39.85;100217.44;5002345;28;98261;-68
2021/05/12 01:51:44;;;;;;;11.85;9.52;;;;;;;14.90;39.91;100208.50;5003181;28;99275;-68
2021/05/12 01:54:12;;;;;;;12.52;9.10;;;;;;;14.91;40.08;100209.41;5001813;28;97006;-69
2021/05/12 01:56:42;;;;;;;11.23;9.52;;;;;;;14.84;39.97;100204.97;5004379;28;97632;-67
2021/05/12 01:59:10;;;;;;;12.25;9.77;;;;;;;14.87;40.00;100213.88;5003038;28;98073;-68
2021/05/12 02:01:38;;;;;;;10.70;8.63;;;;;;;14.87;39.83;100213.00;4997326;28;98100;-69
2021/05/12 02:04:08;;;;;;;12.77;9.18;;;;;;;14.86;39.87;100200.50;5004302;28;97399;-68
2021/05/12 02:06:36;;;;;;;13.48;9.60;;;;;;;14.89;39.69;100213.88;5003493;28;97023;-69
2021/05/12 02:09:06;;;;;;;11.23;10.02;;;;;;;14.90;39.84;100203.16;5002159;28;97396;-68
2021/05/12 02:11:35;;;;;;;14.10;10.05;;;;;;;14.93;39.95;100203.16;5004589;28;97784;-69
2021/05/12 02:14:06;;;;;;;13.55;9.98;;;;;;;14.96;39.81;100195.09;5003830;28;96778;-68
2021/05/12 02:16:36;;;;;;;12.00;8.85;;;;;;;14.95;39.69;100203.13;5005126;28;96933;-69
2021/05/12 02:19:04;;;;;;;12.43;8.88;;;;;;;14.95;39.70;100204.03;5003476;28;98154;-68
2021/05/12 02:21:32;;;;;;;13.25;9.52;;;;;;;14.94;39.81;100209.38;5004335;28;97737;-68
2021/05/12 02:24:00;;;;;;;13.63;9.75;;;;;;;14.93;39.69;100207.59;5005031;28;97645;-68
2021/05/12 02:26:28;;;;;;;18.98;13.15;;;;;;;14.87;40.72;100208.53;5003030;28;96794;-68
2021/05/12 02:28:57;;;;;;;17.25;10.48;;;;;;;14.95;40.25;100200.47;5001973;28;98477;-68
2021/05/12 02:31:26;;;;;;;19.33;11.35;;;;;;;14.98;40.20;100208.47;5004222;28;97987;-67
2021/05/12 02:33:54;;;;;;;17.95;11.02;;;;;;;14.99;39.89;100204.91;5003647;28;97319;-68
2021/05/12 02:36:22;;;;;;;19.20;11.20;;;;;;;15.00;39.81;100202.22;5002892;28;100057;-68
2021/05/12 02:38:49;;;;;;;15.82;11.20;;;;;;;15.02;39.83;100208.44;5003121;28;98164;-68
2021/05/12 02:41:17;;;;;;;17.80;11.80;;;;;;;15.01;39.81;100212.00;5003172;28;98317;-69
2021/05/12 02:43:45;;;;;;;18.55;11.75;;;;;;;15.01;39.69;100216.47;5004389;28;96816;-68
2021/05/12 02:46:13;;;;;;;22.77;13.38;;;;;;;15.01;39.63;100203.06;5001970;28;97212;-68
2021/05/12 02:48:42;;;;;;;28.17;16.90;;;;;;;14.97;40.54;100190.63;5002447;28;97034;-68
2021/05/12 02:51:10;;;;;;;30.27;17.77;;;;;;;14.98;41.10;100197.75;5001943;28;97859;-69
2021/05/12 02:53:37;;;;;;;22.40;13.85;;;;;;;15.04;40.54;100198.63;5000237;28;97256;-68
2021/05/12 02:56:06;;;;;;;22.40;13.80;;;;;;;14.98;40.60;100197.75;5005309;28;96862;-69
2021/05/12 02:58:34;;;;;;;18.48;12.43;;;;;;;14.95;40.29;100205.81;5002055;28;97086;-68
2021/05/12 03:01:03;;;;;;;23.33;13.15;;;;;;;15.01;40.05;100209.34;5004369;28;98979;-68
2021/05/12 03:03:30;;;;;;;19.92;12.77;;;;;;;15.02;40.31;100212.91;5001344;28;97400;-68
2021/05/12 03:05:59;;;;;;;20.42;13.40;;;;;;;15.00;40.33;100207.56;5003603;28;97439;-68
2021/05/12 03:08:27;;;;;;;22.20;13.35;;;;;;;15.00;40.04;100204.00;5002400;28;97636;-69
2021/05/12 03:10:55;;;;;;;18.98;12.55;;;;;;;15.02;40.06;100202.19;5002317;28;97880;-68
2021/05/12 03:13:23;;;;;;;19.35;13.43;;;;;;;15.02;39.94;100199.50;5002423;28;97883;-68
2021/05/12 03:15:51;;;;;;;24.30;14.23;;;;;;;15.00;39.88;100201.31;5003583;28;97742;-67
2021/05/12 03:18:19;;;;;;;22.25;12.85;;;;;;;14.96;39.88;100205.81;5002822;28;98173;-68
2021/05/12 03:20:47;;;;;;;19.08;13.45;;;;;;;14.98;40.14;100201.31;5003452;28;97275;-69
2021/05/12 03:23:16;;;;;;;23.05;13.00;;;;;;;14.99;39.80;100210.25;5002791;28;97360;-68
2021/05/12 03:25:44;;;;;;;20.17;13.00;;;;;;;14.98;39.86;100211.16;5001427;28;97539;-69
2021/05/12 03:28:12;;;;;;;21.83;13.27;;;;;;;14.95;39.79;100206.72;5002455;28;98017;-68
2021/05/12 03:30:40;;;;;;;21.63;12.52;;;;;;;14.95;40.00;100208.50;5002547;28;97785;-67
2021/05/12 03:33:09;;;;;;;20.23;13.90;;;;;;;15.01;39.86;100208.44;5004765;28;97044;-68
2021/05/12 03:35:39;;;;;;;20.60;13.15;;;;;;;15.01;39.54;100205.75;5009762;28;97676;-68
2021/05/12 03:38:07;;;;;;;18.90;12.65;;;;;;;15.01;39.60;100212.00;5006952;28;98952;-68
2021/05/12 03:40:36;;;;;;;20.63;13.55;;;;;;;15.02;39.78;100204.88;5001419;28;98568;-68
2021/05/12 03:43:09;;;;;;;19.90;13.20;;;;;;;15.08;39.41;100207.53;5005107;28;97559;-68
2021/05/12 03:45:37;;;;;;;20.98;13.13;;;;;;;15.08;39.73;100207.53;5008328;28;97322;-68
2021/05/12 03:48:06;;;;;;;24.27;13.32;;;;;;;15.13;39.72;100203.00;5008702;28;97243;-69
2021/05/12 03:50:34;;;;;;;21.10;12.93;;;;;;;15.16;39.53;100208.34;5009471;28;97754;-68
2021/05/12 03:53:03;;;;;;;20.02;13.30;;;;;;;15.17;39.77;100208.31;5009838;28;97703;-69
2021/05/12 03:55:31;;;;;;;24.08;14.63;;;;;;;15.15;39.76;100201.22;5008318;28;97318;-68
2021/05/12 03:58:00;;;;;;;28.60;18.27;;;;;;;15.13;40.51;100214.63;5006876;28;100200;-68
2021/05/12 04:00:28;;;;;;;27.23;18.75;;;;;;;15.14;40.49;100220.84;5007575;28;98748;-68
2021/05/12 04:02:56;;;;;;;30.38;20.50;;;;;;;15.13;40.86;100222.69;5002975;28;97239;-68
2021/05/12 04:05:24;;;;;;;31.08;19.67;;;;;;;15.19;40.91;100229.78;5007118;28;97189;-67
2021/05/12 04:07:52;;;;;;;24.77;16.38;;;;;;;15.32;40.38;100230.63;5008042;28;96816;-68
2021/05/12 04:10:20;;;;;;;28.67;16.02;;;;;;;15.34;40.35;100237.72;5008903;28;100479;-69
2021/05/12 04:12:49;;;;;;;24.05;15.05;;;;;;;15.30;39.76;100227.97;5008642;28;97831;-68
2021/05/12 04:15:18;;;;;;;23.23;15.02;;;;;;;15.30;39.88;100240.47;5009102;28;97405;-68
2021/05/12 04:17:46;;;;;;;22.27;14.60;;;;;;;15.23;40.05;100236.03;5008953;28;97750;-69
2021/05/12 04:20:16;;;;;;;23.15;14.98;;;;;;;15.17;40.07;100224.41;5009162;28;97243;-68
2021/05/12 04:22:44;;;;;;;22.13;14.70;;;;;;;15.10;39.94;100229.84;5008665;28;97220;-68
2021/05/12 04:25:14;;;;;;;26.65;15.90;;;;;;;15.08;39.89;100232.50;5010405;28;96919;-68
2021/05/12 04:27:42;;;;;;;24.77;15.73;;;;;;;15.02;40.11;100243.28;5009504;28;98965;-68
2021/05/12 04:30:12;;;;;;;22.48;15.35;;;;;;;14.96;39.81;100237.94;5007969;28;97992;-67
2021/05/12 04:32:41;;;;;;;25.58;16.30;;;;;;;14.94;39.94;100255.81;5008547;28;96915;-67
2021/05/12 04:35:11;;;;;;;22.42;15.07;;;;;;;14.93;40.10;100258.50;5010758;28;96796;-66
2021/05/12 04:37:39;;;;;;;21.88;14.52;;;;;;;14.93;39.85;100263.88;5008329;28;97933;-67
2021/05/12 04:40:08;;;;;;;29.35;21.05;;;;;;;14.89;40.78;100263.00;5008009;28;98669;-66
2021/05/12 04:42:36;;;;;;;24.33;17.05;;;;;;;14.94;40.50;100268.31;4998258;28;98078;-67
2021/05/12 04:45:05;;;;;;;25.95;16.33;;;;;;;14.95;40.24;100275.47;5006035;28;97776;-67
2021/05/12 04:47:33;;;;;;;29.67;21.67;;;;;;;14.95;40.86;100291.56;5001048;28;97183;-67
2021/05/12 04:50:02;;;;;;;26.63;16.20;;;;;;;15.01;40.81;100289.72;5005271;28;97287;-68
2021/05/12 04:52:30;;;;;;;28.33;16.20;;;;;;;15.06;40.55;100301.28;5002983;28;96927;-68
2021/05/12 04:54:58;;;;;;;25.35;15.68;;;;;;;15.07;40.43;100296.84;5006077;28;97127;-68
2021/05/12 04:57:26;;;;;;;23.75;16.45;;;;;;;15.05;40.37;100299.53;5002153;28;97818;-66
2021/05/12 04:59:54;;;;;;;30.83;21.25;;;;;;;15.04;40.91;100299.53;5002037;28;96940;-66
2021/05/12 05:02:22;;;;;;;33.17;24.37;;;;;;;15.06;41.00;100309.34;5003709;28;97440;-67
2021/05/12 05:04:52;;;;;;;36.45;25.42;;;;;;;15.10;41.21;100311.13;5002656;28;96974;-66
2021/05/12 05:07:20;;;;;;;31.48;23.55;;;;;;;15.14;41.13;100312.88;5002831;28;96939;-66
2021/05/12 05:09:48;;;;;;;25.23;17.88;;;;;;;15.26;40.52;100316.41;5005557;28;99402;-67
2021/05/12 05:12:15;;;;;;;26.35;17.50;;;;;;;15.29;40.35;100314.63;5007444;28;96927;-66
2021/05/12 05:14:43;;;;;;;25.15;16.70;;;;;;;15.28;40.26;100320.88;5006549;28;97325;-67
2021/05/12 05:17:10;;;;;;;27.08;16.63;;;;;;;15.27;40.36;100315.50;5004269;28;97963;-68
2021/05/12 05:19:38;;;;;;;22.23;15.98;;;;;;;15.26;40.20;100319.09;5005925;28;97670;-67
2021/05/12 05:22:11;;;;;;;19.60;14.18;;;;;;;15.24;39.88;100323.56;5002062;28;97763;-67
2021/05/12 05:24:40;;;;;;;32.85;20.48;;;;;;;15.23;39.88;100325.34;5002920;28;96791;-67
2021/05/12 05:27:08;;;;;;;21.98;14.93;;;;;;;15.13;40.04;100319.16;5002260;28;98248;-66
2021/05/12 05:29:37;;;;;;;22.08;14.73;;;;;;;15.13;39.92;100318.25;5001722;28;97769;-66
2021/05/12 05:32:05;;;;;;;21.67;13.05;;;;;;;15.08;40.16;100320.06;5000095;28;96775;-67
2021/05/12 05:34:51;;;;;;;18.95;13.82;;;;;;;15.04;40.09;100319.19;5001770;28;96989;-66
2021/05/12 05:37:38;;;;;;;17.45;13.57;;;;;;;14.98;39.69;100316.53;5003317;28;97971;-66
2021/05/12 05:40:25;;;;;;;17.17;13.07;;;;;;;14.92;39.82;100321.00;5000819;28;97169;-68
2021/05/12 05:43:13;;;;;;;18.20;13.15;;;;;;;14.92;40.05;100315.66;5000797;28;96806;-68
2021/05/12 05:45:59;;;;;;;16.73;12.93;;;;;;;14.86;40.09;100323.75;5001127;28;97488;-68
2021/05/12 05:48:46;;;;;;;19.27;12.35;;;;;;;14.81;39.83;100322.88;4999889;28;98048;-67
2021/05/12 05:51:32;;;;;;;15.45;11.93;;;;;;;14.78;39.75;100321.09;5002568;28;98429;-68
2021/05/12 05:54:19;;;;;;;17.38;11.65;;;;;;;14.80;39.69;100331.78;4997872;28;97759;-67
2021/05/12 05:57:13;;;;;;;19.75;12.23;;;;;;;14.77;39.82;100342.53;4999412;28;97281;-68
2021/05/12 06:00:00;;;;;;;17.35;11.63;;;;;;;14.73;39.98;100346.09;5000770;28;98044;-68
2021/05/12 06:02:40;;;;;;;14.55;11.85;;;;;;;14.72;39.88;100355.91;5001678;28;96854;-68
2021/05/12 06:05:27;;;;;;;16.77;11.45;;;;;;;14.73;39.90;100373.78;4997392;28;98122;-67
2021/05/12 06:08:13;;;;;;;16.95;11.80;;;;;;;14.72;39.76;100363.94;4998491;28;97256;-68
2021/05/12 06:11:01;;;;;;;17.10;11.65;;;;;;;14.68;39.82;100370.19;4982395;28;97325;-68
2021/05/12 06:13:50;;;;;;;17.30;11.23;;;;;;;14.64;39.64;100364.88;5000769;28;97253;-69
2021/05/12 06:16:38;;;;;;;15.63;10.52;;;;;;;14.62;39.64;100377.38;4988849;28;97196;-69
2021/05/12 06:19:24;;;;;;;15.10;12.15;;;;;;;14.61;39.60;100375.59;5001578;28;96783;-68
2021/05/12 06:22:11;;;;;;;15.63;10.95;;;;;;;14.58;39.77;100378.25;5000906;28;99501;-69
2021/05/12 06:24:58;;;;;;;16.40;11.85;;;;;;;14.56;39.65;100380.03;5002585;28;99179;-69
2021/05/12 06:27:44;;;;;;;15.85;11.63;;;;;;;14.53;39.61;100382.69;5002140;28;97583;-69
2021/05/12 06:30:32;;;;;;;15.82;10.77;;;;;;;14.51;39.53;100372.00;4999207;28;97019;-69
2021/05/12 06:33:19;;;;;;;22.17;11.85;;;;;;;14.56;39.70;100374.69;5002336;28;98293;-69
2021/05/12 06:36:06;;;;;;;16.55;11.65;;;;;;;14.57;39.69;100388.06;5001421;28;98386;-68
2021/05/12 06:38:53;;;;;;;14.52;11.52;;;;;;;14.60;39.40;100393.44;5000738;28;97158;-67
2021/05/12 06:41:21;;;;;;;17.27;11.27;;;;;;;14.60;39.39;100387.19;5001239;28;97066;-68
2021/05/12 06:43:49;;;;;;;18.67;11.70;;;;;;;14.64;39.45;100391.66;5002433;28;99178;-68
2021/05/12 06:46:18;;;;;;;18.10;14.25;;;;;;;14.67;40.06;100388.94;5002178;28;99109;-69
2021/05/12 06:48:47;;;;;;;19.73;15.05;;;;;;;14.68;40.52;100393.44;5000622;28;96752;-68
2021/05/12 06:51:14;;;;;;;15.70;11.43;;;;;;;14.81;39.78;100387.16;5004308;28;96799;-68
2021/05/12 06:53:42;;;;;;;14.65;10.70;;;;;;;14.87;39.57;100387.13;5003392;28;99473;-69
2021/05/12 06:56:13;;;;;;;31.88;20.00;;;;;;;14.89;39.44;100390.69;5000482;28;99017;-69
2021/05/12 06:58:42;;;;;;;18.63;12.10;;;;;;;14.93;39.53;100397.84;4995941;28;97257;-69
2021/05/12 07:01:10;;;;;;;16.73;11.80;;;;;;;14.95;39.36;100396.03;4998088;28;98664;-69
2021/05/12 07:03:38;;;;;;;18.15;11.30;;;;;;;14.96;39.49;100403.16;4999397;28;99131;-69
2021/05/12 07:06:06;;;;;;;24.38;12.40;;;;;;;14.97;39.48;100404.97;4996790;28;97175;-66
2021/05/12 07:08:36;;;;;;;28.52;19.27;;;;;;;14.92;39.47;100399.59;4995325;28;97562;-68
2021/05/12 07:11:04;;;;;;;24.55;12.98;;;;;;;14.94;39.00;100389.78;5000021;28;98022;-68
2021/05/12 07:13:32;;;;;;;15.88;11.27;;;;;;;14.95;39.07;100390.69;4996136;28;101234;-68
2021/05/12 07:16:01;;;;;;;14.52;10.68;;;;;;;14.97;39.28;100399.63;4997659;28;98947;-66
2021/05/12 07:18:29;;;;;;;17.65;11.32;;;;;;;14.97;39.17;100399.63;4997438;28;96713;-66
2021/05/12 07:20:58;;;;;;;17.35;11.00;;;;;;;14.93;39.16;100405.88;4998422;28;97655;-66
2021/05/12 07:23:28;;;;;;;43.78;24.42;;;;;;;14.91;38.91;100415.69;4997131;28;99178;-67
2021/05/12 07:25:56;;;;;;;16.67;11.13;;;;;;;14.84;39.01;100416.59;4999392;28;97808;-67
2021/05/12 07:28:25;;;;;;;18.05;11.15;;;;;;;14.85;38.83;100421.06;4997379;28;97652;-68
2021/05/12 07:30:52;;;;;;;20.05;14.43;;;;;;;14.85;39.14;100415.69;4997237;28;97162;-67
2021/05/12 07:33:40;;;;;;;22.98;15.00;;;;;;;14.88;39.43;100421.06;4996403;28;97953;-67
2021/05/12 07:36:09;;;;;;;15.38;11.25;;;;;;;14.99;39.04;100429.97;4999794;28;97810;-67
2021/05/12 07:38:37;;;;;;;17.30;11.65;;;;;;;14.97;38.91;100421.06;4999953;28;97284;-67
2021/05/12 07:41:06;;;;;;;25.48;14.63;;;;;;;14.98;38.92;100425.50;4996466;28;97436;-66
2021/05/12 07:43:33;;;;;;;20.13;11.93;;;;;;;15.02;38.66;100435.31;4999644;28;97197;-66
2021/05/12 07:46:02;;;;;;;20.20;13.43;;;;;;;15.04;38.65;100433.53;4999517;28;98447;-66
2021/05/12 07:48:30;;;;;;;18.50;11.68;;;;;;;15.06;38.75;100437.09;4997614;28;97639;-66
2021/05/12 07:50:59;;;;;;;16.90;11.00;;;;;;;15.05;38.77;100435.31;5000161;28;97332;-67
2021/05/12 07:53:28;;;;;;;18.08;12.02;;;;;;;15.01;38.55;100438.88;5000404;28;99037;-67
2021/05/12 07:55:55;;;;;;;17.58;11.32;;;;;;;14.97;38.77;100439.81;4999439;28;98849;-67
2021/05/12 07:58:23;;;;;;;14.98;11.02;;;;;;;14.96;38.45;100438.00;5001449;28;96814;-68
2021/05/12 08:00:52;;;;;;;;;;;;;;;14.99;38.96;100444.25;4999599;28;97938;-68
2021/05/12 08:03:20;;;;;;;;;;;;;;;14.94;38.67;100434.44;5001579;28;98875;-67
2021/05/12 08:05:49;;;;;;;;;;;;;;;14.90;38.81;100438.03;5001123;28;99075;-69
2021/05/12 08:08:17;;;;;;;;;;;;;;;14.80;38.73;100437.16;5001562;28;97766;-69
2021/05/12 08:10:46;;;;;;;;;;;;;;;14.78;38.97;100432.69;5000433;28;97705;-69
2021/05/12 08:13:13;;;;;;;;;;;;;;;14.73;38.78;100437.16;4999420;28;101120;-69
2021/05/12 08:15:41;;;;;;;18.45;14.32;;;;;;;14.69;39.27;100440.72;4997965;28;99004;-69
2021/05/12 08:18:09;;;;;;;23.73;16.23;;;;;;;14.69;39.22;100441.63;4996321;28;97368;-69
2021/05/12 08:20:37;;;;;;;22.52;15.60;;;;;;;14.67;39.47;100439.84;4996749;28;97330;-69
2021/05/12 08:23:06;;;;;;;23.47;16.70;;;;;;;14.63;39.65;100436.28;4995826;28;101378;-69
2021/05/12 08:25:33;;;;;;;20.48;13.15;;;;;;;14.64;39.25;100413.06;4997650;28;98802;-69
2021/05/12 08:28:03;;;;;;;20.43;16.03;;;;;;;14.69;39.55;100416.63;4995564;28;100038;-68
2021/05/12 08:30:35;;;;;;;17.23;11.82;;;;;;;14.73;39.16;100419.31;4997877;28;97486;-68
2021/05/12 08:33:03;;;;;;;;;;;;;;;14.80;39.48;100414.81;4997227;28;99054;-70
2021/05/12 08:35:30;;;;;;;;;;;;;;;14.82;39.39;100426.44;4992945;28;97759;-69
2021/05/12 08:37:58;;;;;;;;;;;;;;;14.80;39.19;100422.84;5001616;28;97248;-68
2021/05/12 08:40:26;;;;;;;12.40;9.70;;;;;;;14.76;38.64;100421.06;4998400;28;97676;-70
2021/05/12 08:42:55;;;;;;;13.95;10.13;;;;;;;14.75;38.73;100430.91;5000099;28;97984;-68
2021/05/12 08:45:24;;;;;;;12.93;9.93;;;;;;;14.72;38.65;100443.41;4999409;28;97487;-69
2021/05/12 08:47:54;;;;;;;13.80;10.40;;;;;;;14.67;38.71;100437.16;5003731;28;97014;-69
2021/05/12 08:50:23;;;;;;;12.48;9.65;;;;;;;14.59;38.69;100445.19;5001847;28;97159;-69
2021/05/12 08:52:52;;;;;;;11.27;9.35;;;;;;;14.56;38.92;100438.94;5010219;28;97343;-69
2021/05/12 08:55:21;;;;;;;12.40;9.45;;;;;;;14.52;38.88;100437.13;5004244;28;97754;-69
2021/05/12 08:57:50;;;;;;;14.10;8.93;;;;;;;14.51;39.00;100435.34;5002613;28;97459;-69
2021/05/12 09:00:19;;;;;;;10.02;8.50;;;;;;;14.47;38.94;100439.81;5002243;28;98105;-68
2021/05/12 09:02:48;;;;;;;10.50;8.98;;;;;;;14.45;39.06;100435.34;5001182;28;99605;-69
2021/05/12 09:05:16;;;;;;;21.20;14.93;;;;;;;14.42;39.19;100443.38;5002781;28;97939;-68
2021/05/12 09:07:44;;;;;;;13.50;10.18;;;;;;;14.41;39.23;100433.59;5002408;28;97402;-70
2021/05/12 09:10:13;;;;;;;11.75;9.38;;;;;;;14.39;39.07;100436.25;5000709;28;97924;-70
2021/05/12 09:12:45;;;;;;;11.93;9.85;;;;;;;14.40;39.14;100439.81;5003220;28;97966;-68
2021/05/12 09:15:16;;;;;;;15.48;10.18;;;;;;;14.37;39.09;100438.03;5004829;28;97969;-69
2021/05/12 09:17:45;;;;;;;17.73;13.45;;;;;;;14.33;40.03;100438.94;5002988;28;98364;-69
2021/05/12 09:20:33;;;;;;;14.53;13.03;;;;;;;14.35;40.54;100441.63;5004296;28;97136;-68
2021/05/12 09:23:16;;;;;;;15.00;13.40;;;;;;;14.41;40.69;100433.59;5001836;28;97917;-69
2021/05/12 09:25:55;;;;;;;16.92;13.60;;;;;;;14.44;40.85;100438.94;5001181;28;98275;-68
2021/05/12 09:28:28;;;;;;;17.17;14.50;;;;;;;14.53;40.66;100446.97;4992982;28;97447;-69
2021/05/12 09:31:04;;;;;;;17.05;14.20;;;;;;;14.56;40.66;100446.97;5002279;28;97077;-70
2021/05/12 09:33:34;;;;;;;19.73;17.00;;;;;;;14.58;40.93;100454.13;4996456;28;98921;-69
2021/05/12 09:36:04;;;;;;;17.17;14.53;;;;;;;14.67;40.74;100456.81;4998665;28;97901;-70
2021/05/12 09:38:33;;;;;;;27.57;22.47;;;;;;;14.72;40.94;100454.09;5002188;28;97078;-67
2021/05/12 09:41:09;;;;;;;25.05;20.80;;;;;;;14.78;40.83;100457.69;5001989;28;97165;-68
2021/05/12 09:43:45;;;;;;;19.27;15.60;;;;;;;14.81;40.78;100460.34;5001660;28;98642;-69
2021/05/12 09:46:22;;;;;;;17.47;14.53;;;;;;;14.89;40.82;100461.25;4994543;28;98924;-68
2021/05/12 09:49:07;;;;;;;17.15;14.60;;;;;;;14.95;41.10;100465.72;4997943;28;97467;-66
2021/05/12 09:51:38;;;;;;;17.47;15.03;;;;;;;15.02;41.11;100460.34;4999158;28;97028;-68
2021/05/12 09:54:08;;;;;;;17.48;13.90;;;;;;;15.08;40.84;100462.97;4998924;28;97967;-69
2021/05/12 09:56:38;;;;;;;15.75;13.93;;;;;;;15.17;40.45;100457.59;5001489;28;97737;-69
2021/05/12 09:59:08;;;;;;;18.67;14.70;;;;;;;15.26;40.50;100456.69;4999719;28;97721;-69
2021/05/12 10:01:47;;;;;;;16.85;14.32;;;;;;;15.32;40.78;100462.06;4988823;28;97965;-69
2021/05/12 10:04:24;;;;;;;47.92;35.05;;;;;;;15.44;40.45;100462.03;4997955;28;98128;-69
2021/05/12 10:06:54;;;;;;;18.50;16.03;;;;;;;15.53;40.28;100456.63;4997295;28;98508;-69
2021/05/12 10:09:24;;;;;;;17.95;16.05;;;;;;;15.55;40.24;100449.47;4996881;28;96902;-69
2021/05/12 10:12:00;;;;;;;20.63;16.38;;;;;;;15.49;40.63;100449.47;4995140;28;97323;-69
2021/05/12 10:14:28;;;;;;;21.05;17.45;;;;;;;15.45;40.15;100450.38;4996778;28;97950;-69
2021/05/12 10:16:57;;;;;;;24.05;18.40;;;;;;;15.49;40.56;100449.47;4995820;28;99889;-68
2021/05/12 10:19:25;;;;;;;21.35;18.25;;;;;;;15.49;40.33;100460.22;4996392;28;97407;-69
2021/05/12 10:21:54;;;;;;;21.70;17.70;;;;;;;15.51;40.54;100466.47;4995251;28;97136;-69
2021/05/12 10:24:23;;;;;;;22.80;17.17;;;;;;;15.56;40.48;100474.47;4999355;28;98124;-69
2021/05/12 10:26:51;;;;;;;24.65;19.73;;;;;;;15.51;40.54;100471.81;5002322;28;97758;-69
2021/05/12 10:29:21;;;;;;;46.50;30.67;;;;;;;15.48;40.69;100469.16;5000708;28;96943;-68
2021/05/12 10:31:49;;;;;;;23.27;18.40;;;;;;;15.43;40.65;100465.59;5000390;28;97602;-68
2021/05/12 10:34:36;;;;;;;21.60;17.30;;;;;;;15.39;41.13;100461.16;5001075;28;97900;-68
2021/05/12 10:37:24;;;;;;;22.85;18.23;;;;;;;15.40;41.18;100467.38;5000576;28;97836;-68
2021/05/12 10:39:54;;;;;;;24.42;17.88;;;;;;;15.36;41.35;100468.28;4999303;28;98429;-69
2021/05/12 10:42:49;;;;;;;25.08;16.60;;;;;;;15.34;41.29;100470.97;5002396;28;97066;-69
2021/05/12 10:45:33;;;;;;;24.95;17.13;;;;;;;15.27;41.31;100469.19;4999447;28;97357;-68
2021/05/12 10:48:01;;;;;;;23.90;17.10;;;;;;;15.17;41.23;100462.09;4998725;28;97867;-68
2021/05/12 10:50:45;;;;;;;22.40;16.75;;;;;;;15.17;41.42;100451.38;4998834;28;97190;-66
2021/05/12 10:53:19;;;;;;;23.27;16.88;;;;;;;15.20;41.75;100461.16;4998958;28;97131;-68
2021/05/12 10:56:04;;;;;;;20.93;15.80;;;;;;;15.22;41.52;100465.63;4997086;28;97564;-70
2021/05/12 10:58:34;;;;;;;21.00;15.35;;;;;;;15.25;41.40;100462.94;5000157;28;97981;-66
2021/05/12 11:01:04;;;;;;;21.25;15.50;;;;;;;15.25;41.65;100460.25;5001858;28;96740;-66
2021/05/12 11:04:15;;;;;;;21.42;15.43;;;;;;;15.22;41.21;100457.59;5000757;28;97246;-66
2021/05/12 11:07:04;;;;;;;22.08;17.60;;;;;;;15.19;41.48;100460.31;4996961;28;97829;-66
2021/05/12 11:09:58;;;;;;;24.38;18.83;;;;;;;15.23;41.30;100461.19;4995284;28;97817;-67
2021/05/12 11:12:52;;;;;;;20.02;13.95;;;;;;;15.23;41.48;100462.03;4995085;28;98342;-66
2021/05/12 11:15:20;;;;;;;18.02;14.20;;;;;;;15.22;41.18;100457.59;4992816;28;97230;-66
2021/05/12 11:17:50;;;;;;;17.35;13.32;;;;;;;15.21;41.61;100450.44;4996468;28;98135;-66
2021/05/12 11:20:25;;;;;;;15.93;13.75;;;;;;;15.23;41.43;100445.09;4996637;28;98186;-66
2021/05/12 11:22:57;;;;;;;17.73;13.57;;;;;;;15.27;41.22;100446.84;4992436;28;97984;-66
2021/05/12 11:25:31;;;;;;;19.20;14.60;;;;;;;15.28;41.60;100446.88;4995823;28;98174;-66
2021/05/12 11:33:53;;;;;;;21.38;15.93;;;;;;;15.32;41.38;100451.31;4997105;28;97024;-66
2021/05/12 11:36:26;;;;;;;19.95;14.68;;;;;;;15.30;41.49;100455.84;4993865;28;97991;-67
2021/05/12 11:38:54;;;;;;;17.70;14.52;;;;;;;15.31;41.34;100452.25;4996470;28;97961;-65